Békásmegyer ÉK további részletek Békásmegyer ÉK


Békásmegyer DK további részletek Békásmegyer DK


Csillaghegy NY további részletek Csillaghegy NY


Előrejelzés további részletek Előrejelzés


Eu hőtérkép további részletek Eu hőtérkép


Műhold további részletek Műhold


Radar további részletek Radar


EU min. hőtérkép további részletek EU min. hőtérkép


EU max. hőtérkép további részletek EU max. hőtérkép


Villámtérkép további részletek blitzortung!


Csapadékradar további részletek rain snow radar



No particular awareness of the weather is required.    There are no Weather-warnings

Közeli METAR jelentések

   
LHBP - Budapest
Távolság az állomástól: DK 24 km
Frissítve: Dec 9 2021 11:30 am
Erősen felhős  
Erősen felhős  
   Szél: KÉK 20.4 km/h
Szél: KÉK 20.4 km/h
Hőmérséklet: 1°C
Szélhűtés: -4°C
Harmatpont: -1°C
Páratartalom: 87%
Légnyomás: 1004 hPa
Felhők: Erősen felhős
Látótávolság: 9 km
Felhő fajták: Kissé felhős 1000 ft,
Erősen felhős 5700 ft
LHBP 091030Z 07011KT 040V100 9000 FEW010 BKN057 01/M01 Q1004 NOSIG
LHDC - Debrecen
Távolság az állomástól: K 192 km
Frissítve: Dec 9 2021 11:15 am
Közepesen felhős  
Közepesen felhős  
   Szél: KÉK 14.8 km/h
Szél: KÉK 14.8 km/h
Hőmérséklet: 3°C
Szélhűtés: -1°C
Harmatpont: 1°C
Páratartalom: 87%
Légnyomás: 1006 hPa
Felhők: Közepesen felhős
Látótávolság: 6 km
Felhő fajták: Közepesen felhős
LHDC 091015Z AUTO 07008KT 040V110 6000 NSC 03/01 Q1006 NOSIG
LHKE - Kecskemét
Távolság az állomástól: DK 91 km
Frissítve: Dec 9 2021 11:49 am
Gyenge eső, Borult  
Gyenge eső, Borult  
   Szél: KÉK 22.2 km/h
Szél: KÉK 22.2 km/h
Hőmérséklet: 2°C
Szélhűtés: -3°C
Harmatpont: 1°C
Páratartalom: 93%
Légnyomás: 1004 hPa
Felhők: Borult
Látótávolság: 7 km
Felhő fajták: Borult 6000 ft
LHKE 091049Z 07012KT 7000 -RA OVC060 02/01 Q1004 NOSIG RMK WHT
LHPA - Pápa
Távolság az állomástól: NY 121 km
Frissítve: Dec 9 2021 11:45 am
Havazás, Borult  
Havazás, Borult  
   Szél: KÉK 11.1 km/h
Szél: KÉK 11.1 km/h
Hőmérséklet: 0°C
Szélhűtés: -3°C
Harmatpont: 0°C
Páratartalom: 100%
Légnyomás: 1003 hPa
Felhők: Borult
Látótávolság: 1 km
Felhő fajták: Erősen felhős 600 ft,
Borult 2300 ft
LHPA 091045Z 06006KT 1200 R34/P1500 SN BKN006 OVC023 00/M00 Q1003 TEMPO 0800 +SN BKN005 RMK AMB
LZSL - Sliac, Slovakia
Távolság az állomástól: É 116 km
Frissítve: Jun 9 2021 10:32 am
NOT Current
Kissé felhős  
Kissé felhős  
   Szél: DK 7.4 km/h
Szél: DK 7.4 km/h
Hőmérséklet: 25°C
Harmatpont: 11°C
Páratartalom: 42%
Légnyomás: 1017 hPa
Felhők: Kissé felhős
Látótávolság: More than 10 km
Felhő fajták: Kissé felhős 4000 ft
LZSL 090832Z 13004KT 9999 FEW040 25/11 Q1017
LOWW - Wien, Austria
Távolság az állomástól: NY 195 km
Frissítve: Dec 9 2021 11:50 am
Havazás, Erősen felhős  
Havazás, Erősen felhős  
   Szél: ÉÉK 5.6 km/h
Szél: ÉÉK 5.6 km/h
Hőmérséklet: 0°C
Szélhűtés: -2°C
Harmatpont: -1°C
Páratartalom: 93%
Légnyomás: 1005 hPa
Felhők: Erősen felhős
Látótávolság: 1 km
Felhő fajták: Kissé felhős 100 ft,
Erősen felhős 300 ft
LOWW 091050Z 02003KT 350V060 1000 R16/1100N R29/1100N SN FEW001 BKN003 M00/M01 Q1005 TEMPO 2000 -SN

Eredeti script  Saratoga-weather.org Adapted for the template by  Weerstation Leuven